Terminal Aerodrome Forecast
Issued by NWS

Home | Current Version | Previous Version | Text Only | Print | Product List | Glossary Off
Versions: 1 2 3 4 5 6 7 8 9 10 11 12

000
FTUS45 KGGW 020520
TAFOLF
TAF
KOLF 020520Z 0206/0306 28006KT P6SM SCT120
     FM021500 29010KT P6SM BKN150
     FM021800 33014KT P6SM SCT150
     FM030000 01012KT P6SM FEW150
     FM030300 VRB05KT P6SM FEW200=

USA.gov is the U.S. government's official web portal to all federal, state and local government web resources and services.